Arcadia, Oklahoma
Current Conditions -  °F | °C
As of 11:53 PM on Thursday 27 Nov 2014 (Local Time) from KGOK Reporting Station
Clear Clear  
Wind Chill:   Ceiling: Unl
Heat Index:   Visibility: 10mi
Dew Point: -5°   Wind: 13mph
Humidity: 43%   Direction: 180°S
Pressure: 30.22"   Gusts: NA
Location:  35.67°N, 97.33°W
Report Text: KGOK 280553Z AUTO 18011KT 10SM CLR 07/M05 A3022 RMK AO2 SLP238 T00671050 10072 20028 401171039 58026
Loading
Personal Weather Stations






























Interactive Weather Map New forecast layout! Learn more

10-Day Weather Forecast

Advertisements
Track Severe Weather on mobile